createdAt,value
2022-11-20T00:05:29.801Z,98669.41
2022-11-20T00:25:34.595Z,98649.59
2022-11-20T00:45:36.623Z,98647.41
2022-11-20T01:05:38.085Z,98653.88
2022-11-20T01:25:40.699Z,98665.03
2022-11-20T01:45:42.386Z,98685.13
2022-11-20T02:05:44.785Z,98690.25
2022-11-20T02:25:54.230Z,98680.81
2022-11-20T02:45:56.474Z,98663.06
2022-11-20T03:05:58.127Z,98650.81
2022-11-20T03:26:00.593Z,98642.81
2022-11-20T03:46:02.162Z,98621.78
2022-11-20T04:06:04.212Z,98609.41
2022-11-20T04:26:05.961Z,98595.25
2022-11-20T04:46:08.606Z,98584.56
2022-11-20T05:06:10.339Z,98572.44
2022-11-20T05:26:12.810Z,98562.41
2022-11-20T05:46:14.242Z,98581.06
2022-11-20T06:06:16.573Z,98583.63
2022-11-20T06:26:18.029Z,98602.28
2022-11-20T06:46:20.492Z,98622.66
2022-11-20T07:06:23.839Z,98654.16
2022-11-20T07:26:30.984Z,98655.38
2022-11-20T07:46:35.411Z,98684.91
2022-11-20T09:09:07.072Z,98688.72
2022-11-20T09:50:24.769Z,98667.59
2022-11-20T11:13:11.021Z,98636.94
2022-11-20T11:33:29.994Z,98624.56
2022-11-20T11:53:59.723Z,98603.31
2022-11-20T12:14:05.740Z,98609.94
2022-11-20T12:34:08.506Z,98613.44
2022-11-20T12:54:18.047Z,98597.03
2022-11-20T13:55:45.563Z,98542.66
2022-11-20T14:36:59.567Z,98520.41
2022-11-20T14:57:24.743Z,98517.94
2022-11-20T15:17:27.144Z,98513.28
2022-11-20T15:37:30.149Z,98509.72
2022-11-20T15:57:34.841Z,98520.84
2022-11-20T16:17:37.162Z,98507.66
2022-11-20T16:37:39.297Z,98535.94
2022-11-20T16:57:45.752Z,98543.13
2022-11-20T17:17:52.707Z,98518.44
2022-11-20T17:37:59.731Z,98520.81
2022-11-20T17:58:02.206Z,98502.59
2022-11-20T18:18:04.069Z,98517.50
2022-11-20T18:38:06.177Z,98459.31
2022-11-20T18:58:07.999Z,98427.25
2022-11-20T19:18:10.718Z,98439.00
2022-11-20T19:38:12.146Z,98443.66
2022-11-20T19:58:14.259Z,98455.84
2022-11-20T20:18:16.658Z,98458.59
2022-11-20T20:38:18.738Z,98474.78
2022-11-20T20:58:26.729Z,98459.44
2022-11-20T21:18:49.842Z,98451.06
2022-11-20T21:38:53.828Z,98445.84
2022-11-20T21:59:00.722Z,98451.91
2022-11-20T22:19:04.831Z,98448.63
2022-11-20T22:39:09.215Z,98446.94
2022-11-20T22:59:10.879Z,98424.22
2022-11-20T23:19:18.046Z,98427.16
2022-11-20T23:39:20.396Z,98378.91
2022-11-20T23:59:22.193Z,98344.31
